createdAt,value
2023-02-17T00:02:25.976Z,102488.75
2023-02-17T00:05:13.742Z,102483.88
2023-02-17T00:08:00.175Z,102479.31
2023-02-17T00:10:46.790Z,102467.91
2023-02-17T00:13:33.721Z,102462.78
2023-02-17T00:16:21.995Z,102453.06
2023-02-17T00:22:03.561Z,102316.47
2023-02-17T00:24:49.627Z,102326.34
2023-02-17T00:27:36.180Z,102352.41
2023-02-17T00:30:22.910Z,102358.72
2023-02-17T00:33:09.623Z,102354.16
2023-02-17T00:35:55.878Z,102359.84
2023-02-17T00:38:43.504Z,102357.44
2023-02-17T00:41:30.634Z,102367.69
2023-02-17T00:44:19.014Z,102352.94
2023-02-17T00:47:05.992Z,102371.44
2023-02-17T00:49:52.604Z,102367.31
2023-02-17T00:52:38.960Z,102383.81
2023-02-17T00:55:28.458Z,102380.06
2023-02-17T00:58:15.175Z,102377.03
2023-02-17T01:01:01.688Z,102374.78
2023-02-17T01:03:48.473Z,102379.34
2023-02-17T01:06:37.347Z,102379.38
2023-02-17T01:09:23.986Z,102392.66
2023-02-17T01:12:13.059Z,102385.25
2023-02-17T01:14:59.524Z,102398.78
2023-02-17T01:17:46.079Z,102398.50
2023-02-17T01:20:36.009Z,102407.44
2023-02-17T01:23:22.211Z,102422.16
2023-02-17T01:26:08.758Z,102421.16
2023-02-17T01:28:57.296Z,102418.72
2023-02-17T01:31:43.644Z,102426.59
2023-02-17T01:34:31.303Z,102432.56
2023-02-17T01:37:19.084Z,102446.94
2023-02-17T01:40:06.445Z,102453.38
2023-02-17T01:42:52.975Z,102452.06
2023-02-17T01:45:51.477Z,102472.00
2023-02-17T01:48:44.145Z,102452.34
2023-02-17T01:51:35.394Z,102446.94
2023-02-17T01:54:27.952Z,102456.06
2023-02-17T01:57:17.621Z,102468.03
2023-02-17T02:00:05.497Z,102464.03
2023-02-17T02:03:02.465Z,102468.63
2023-02-17T02:05:48.986Z,102457.22
2023-02-17T02:08:40.015Z,102454.63
2023-02-17T02:11:26.732Z,102432.72
2023-02-17T02:14:14.041Z,102414.22
2023-02-17T02:17:09.621Z,102415.38
2023-02-17T02:20:24.151Z,102410.25
2023-02-17T02:23:44.462Z,102393.84
2023-02-17T02:26:50.614Z,102369.81
2023-02-17T02:30:08.302Z,102354.69
2023-02-17T02:33:00.667Z,102363.09
2023-02-17T02:35:58.516Z,102352.69
2023-02-17T02:38:49.818Z,102339.84
2023-02-17T02:41:41.376Z,102340.47
2023-02-17T02:44:28.115Z,102337.25
2023-02-17T02:47:43.427Z,102310.09
2023-02-17T02:50:43.487Z,102302.66
2023-02-17T02:53:43.701Z,102283.69
2023-02-17T02:56:41.947Z,102284.72
2023-02-17T02:59:41.328Z,102268.47
2023-02-17T03:02:34.981Z,102256.50
2023-02-17T03:05:29.951Z,102262.09
2023-02-17T03:08:21.635Z,102242.50
2023-02-17T03:11:08.225Z,102227.06
2023-02-17T03:13:55.773Z,102213.53
2023-02-17T03:16:43.698Z,102212.66
2023-02-17T03:19:30.434Z,102194.22
2023-02-17T03:22:22.596Z,102199.28
2023-02-17T03:25:11.118Z,102204.94
2023-02-17T03:27:57.775Z,102192.44
2023-02-17T03:30:44.458Z,102177.03
2023-02-17T03:33:30.844Z,102152.66
2023-02-17T03:36:18.115Z,102150.63
2023-02-17T03:39:04.851Z,102129.38
2023-02-17T03:41:52.899Z,102109.94
2023-02-17T03:44:39.559Z,102106.63
2023-02-17T03:47:26.000Z,102096.09
2023-02-17T03:50:12.804Z,102101.50
2023-02-17T03:52:59.218Z,102097.47
2023-02-17T03:55:45.810Z,102103.22
2023-02-17T03:58:33.980Z,102098.81
2023-02-17T04:01:20.753Z,102079.63
2023-02-17T04:04:07.396Z,102074.34
2023-02-17T04:06:54.119Z,102062.53
2023-02-17T04:09:40.548Z,102048.25
2023-02-17T04:12:26.779Z,102058.06
2023-02-17T04:15:14.723Z,102040.41
2023-02-17T04:18:01.457Z,102042.75
2023-02-17T04:20:50.468Z,102031.81
2023-02-17T04:23:37.816Z,102029.66
2023-02-17T04:26:24.437Z,102031.63
2023-02-17T04:29:11.005Z,102025.16
2023-02-17T04:31:59.035Z,102043.94
2023-02-17T04:34:45.799Z,102042.81
2023-02-17T04:37:32.388Z,102044.19
2023-02-17T04:40:19.386Z,102033.13
2023-02-17T04:43:06.494Z,102039.59
2023-02-17T04:45:53.681Z,102033.13
2023-02-17T04:48:41.364Z,102038.16
2023-02-17T04:51:27.971Z,102050.78
2023-02-17T04:54:14.704Z,102042.19
2023-02-17T04:57:01.479Z,102050.84
2023-02-17T04:59:48.215Z,102049.66
2023-02-17T05:02:34.691Z,102070.66
2023-02-17T05:05:22.786Z,102073.34
2023-02-17T05:08:09.513Z,102078.13
2023-02-17T05:10:56.203Z,102071.09
2023-02-17T05:13:42.746Z,102079.78
2023-02-17T05:16:29.227Z,102094.88
2023-02-17T05:19:15.929Z,102093.00
2023-02-17T05:22:04.119Z,102115.75
2023-02-17T05:24:50.467Z,102125.88
2023-02-17T05:27:36.877Z,102115.44
2023-02-17T05:30:23.962Z,102099.97
2023-02-17T05:33:10.682Z,102116.91
2023-02-17T05:35:57.288Z,102128.38
2023-02-17T05:38:49.107Z,102150.19
2023-02-17T05:41:35.955Z,102160.16
2023-02-17T05:44:22.510Z,102165.16
2023-02-17T05:47:09.329Z,102183.44
2023-02-17T05:49:55.673Z,102203.47
2023-02-17T05:52:42.182Z,102220.88
2023-02-17T05:55:30.315Z,102230.88
2023-02-17T05:58:16.598Z,102251.38
2023-02-17T06:01:02.932Z,102261.00
2023-02-17T06:03:49.631Z,102262.59
2023-02-17T06:06:36.135Z,102280.16
2023-02-17T06:09:22.744Z,102286.63
2023-02-17T06:12:10.744Z,102289.16
2023-02-17T06:14:57.302Z,102292.28
2023-02-17T06:17:43.783Z,102304.47
2023-02-17T06:20:30.167Z,102318.22
2023-02-17T06:23:16.814Z,102318.13
2023-02-17T06:26:03.680Z,102313.91
2023-02-17T06:28:51.825Z,102310.56
2023-02-17T06:31:38.490Z,102312.78
2023-02-17T06:34:25.213Z,102307.81
2023-02-17T06:37:11.752Z,102314.59
2023-02-17T06:39:58.466Z,102300.09
2023-02-17T06:42:45.142Z,102286.56
2023-02-17T06:45:32.978Z,102297.09
2023-02-17T06:48:19.577Z,102294.28
2023-02-17T06:51:07.112Z,102283.44
2023-02-17T06:53:53.338Z,102293.03
2023-02-17T06:56:39.615Z,102288.56
2023-02-17T06:59:26.470Z,102281.28
2023-02-17T07:02:15.072Z,102278.88
2023-02-17T07:05:01.731Z,102272.47
2023-02-17T07:07:48.840Z,102262.28
2023-02-17T07:10:35.344Z,102248.03
2023-02-17T07:13:22.017Z,102248.72
2023-02-17T07:16:09.902Z,102249.81
2023-02-17T07:18:58.280Z,102245.53
2023-02-17T07:21:45.000Z,102253.75
2023-02-17T07:24:31.660Z,102257.09
2023-02-17T07:27:18.279Z,102249.25
2023-02-17T07:30:06.417Z,102250.47
2023-02-17T07:32:53.222Z,102229.91
2023-02-17T07:35:44.789Z,102212.25
2023-02-17T07:38:33.426Z,102207.81
2023-02-17T07:41:22.047Z,102168.31
2023-02-17T07:44:08.500Z,102140.28
2023-02-17T07:46:55.181Z,102133.47
2023-02-17T07:49:41.530Z,102106.56
2023-02-17T07:52:29.314Z,102089.50
2023-02-17T07:55:15.832Z,102082.72
2023-02-17T07:58:02.362Z,102056.44
2023-02-17T08:00:48.733Z,102026.22
2023-02-17T08:03:35.424Z,102021.34
2023-02-17T08:06:23.848Z,102014.94
2023-02-17T08:09:30.795Z,101994.28
2023-02-17T08:12:37.121Z,101961.69
2023-02-17T08:15:23.928Z,101944.09
2023-02-17T08:18:10.899Z,101953.41
2023-02-17T08:20:57.699Z,101938.31
2023-02-17T08:23:45.419Z,101932.19
2023-02-17T08:26:33.648Z,101927.44
2023-02-17T08:29:20.912Z,101928.66
2023-02-17T08:32:07.920Z,101922.06
2023-02-17T08:34:56.780Z,101910.19
2023-02-17T08:37:43.549Z,101891.88
2023-02-17T08:40:30.367Z,101879.34
2023-02-17T08:43:18.240Z,101843.72
2023-02-17T08:46:08.921Z,101844.25
2023-02-17T08:48:56.085Z,101844.91
2023-02-17T08:51:43.657Z,101842.19
2023-02-17T08:54:30.309Z,101852.72
2023-02-17T08:57:19.007Z,101852.69
2023-02-17T09:00:08.891Z,101833.69
2023-02-17T09:02:55.853Z,101824.88
2023-02-17T09:05:43.172Z,101805.72
2023-02-17T09:08:29.793Z,101804.38
2023-02-17T09:11:19.652Z,101793.38
2023-02-17T09:14:07.638Z,101814.03
2023-02-17T09:16:56.835Z,101814.56
2023-02-17T09:19:43.484Z,101813.69
2023-02-17T09:22:32.326Z,101797.75
2023-02-17T09:25:19.258Z,101798.75
2023-02-17T09:28:06.307Z,101775.88
2023-02-17T09:30:53.105Z,101761.31
2023-02-17T09:33:41.744Z,101756.31
2023-02-17T09:36:32.028Z,101757.03
2023-02-17T09:39:18.680Z,101749.56
2023-02-17T09:42:05.408Z,101728.84
2023-02-17T09:44:57.016Z,101733.03
2023-02-17T09:47:48.093Z,101708.69
2023-02-17T09:50:44.333Z,101697.63
2023-02-17T09:53:37.596Z,101693.78
2023-02-17T09:56:30.127Z,101709.91
2023-02-17T09:59:23.938Z,101719.53
2023-02-17T10:02:17.523Z,101715.59
2023-02-17T10:05:08.521Z,101706.97
2023-02-17T10:08:02.208Z,101700.72
2023-02-17T10:10:53.992Z,101688.78
2023-02-17T10:13:43.902Z,101690.84
2023-02-17T10:16:45.348Z,101708.38
2023-02-17T10:19:35.496Z,101704.22
2023-02-17T10:22:24.319Z,101700.09
2023-02-17T10:25:17.776Z,101703.72
2023-02-17T10:28:10.137Z,101728.66
2023-02-17T10:31:04.323Z,101708.56
2023-02-17T10:34:00.577Z,101693.34
2023-02-17T10:36:57.108Z,101684.75
2023-02-17T10:39:49.464Z,101704.56
2023-02-17T10:42:39.859Z,101710.38
2023-02-17T10:45:30.912Z,101710.56
2023-02-17T10:48:21.847Z,101722.25
2023-02-17T10:51:08.430Z,101717.63
2023-02-17T10:54:00.642Z,101700.88
2023-02-17T10:56:53.262Z,101699.81
2023-02-17T10:59:44.125Z,101704.25
2023-02-17T11:02:38.234Z,101713.72
2023-02-17T11:05:27.410Z,101703.06
2023-02-17T11:08:29.607Z,101728.66
2023-02-17T11:11:19.924Z,101726.28
2023-02-17T11:14:14.601Z,101718.63
2023-02-17T11:17:04.491Z,101718.28
2023-02-17T11:19:59.977Z,101719.25
2023-02-17T11:22:48.738Z,101714.19
2023-02-17T11:25:37.724Z,101714.13
2023-02-17T11:28:25.977Z,101717.97
2023-02-17T11:31:24.373Z,101707.84
2023-02-17T11:34:22.926Z,101725.84
2023-02-17T11:37:21.738Z,101737.19
2023-02-17T11:40:26.579Z,101743.28
2023-02-17T11:43:19.031Z,101737.56
2023-02-17T11:46:24.285Z,101736.72
2023-02-17T11:49:42.720Z,101736.94
2023-02-17T11:52:44.569Z,101744.53
2023-02-17T11:55:47.135Z,101756.06
2023-02-17T11:58:45.599Z,101778.75
2023-02-17T12:01:49.462Z,101768.44
2023-02-17T12:04:41.815Z,101769.94
2023-02-17T12:07:59.352Z,101772.81
2023-02-17T12:11:00.220Z,101790.97
2023-02-17T12:14:02.474Z,101780.50
2023-02-17T12:16:56.455Z,101786.44
2023-02-17T12:19:56.043Z,101778.44
2023-02-17T12:22:56.051Z,101777.81
2023-02-17T12:25:51.008Z,101781.03
2023-02-17T12:29:02.298Z,101781.00
2023-02-17T12:32:11.928Z,101791.88
2023-02-17T12:35:02.916Z,101796.78
2023-02-17T12:37:55.230Z,101802.22
2023-02-17T12:40:45.918Z,101822.53
2023-02-17T12:43:39.790Z,101841.53
2023-02-17T12:46:29.821Z,101842.03
2023-02-17T12:49:21.251Z,101837.63
2023-02-17T12:52:13.486Z,101830.66
2023-02-17T12:55:05.874Z,101837.28
2023-02-17T12:57:58.420Z,101826.09
2023-02-17T13:00:47.629Z,101837.28
2023-02-17T13:03:36.098Z,101842.88
2023-02-17T13:06:29.099Z,101843.53
2023-02-17T13:09:28.698Z,101858.66
2023-02-17T13:12:40.470Z,101831.34
2023-02-17T13:15:34.608Z,101817.13
2023-02-17T13:18:30.968Z,101805.25
2023-02-17T13:21:20.327Z,101816.59
2023-02-17T13:24:13.923Z,101811.19
2023-02-17T13:27:13.451Z,101807.13
2023-02-17T13:30:01.510Z,101818.81
2023-02-17T13:32:48.137Z,101812.84
2023-02-17T13:35:36.911Z,101800.63
2023-02-17T13:38:30.610Z,101799.75
2023-02-17T13:41:17.454Z,101802.63
2023-02-17T13:44:27.489Z,101782.84
2023-02-17T13:47:17.982Z,101773.16
2023-02-17T13:50:05.675Z,101778.38
2023-02-17T13:52:52.478Z,101779.91
2023-02-17T13:55:41.862Z,101751.84
2023-02-17T13:58:31.153Z,101743.13
2023-02-17T14:01:21.795Z,101760.91
2023-02-17T14:04:20.123Z,101751.38
2023-02-17T14:07:06.897Z,101746.34
2023-02-17T14:09:55.764Z,101753.84
2023-02-17T14:12:42.795Z,101761.41
2023-02-17T14:15:30.327Z,101749.75
2023-02-17T14:18:31.156Z,101744.00
2023-02-17T14:21:26.383Z,101748.91
2023-02-17T14:24:27.728Z,101759.97
2023-02-17T14:27:14.552Z,101761.31
2023-02-17T14:30:01.311Z,101770.78
2023-02-17T14:32:48.847Z,101757.72
2023-02-17T14:35:39.467Z,101757.38
2023-02-17T14:38:29.185Z,101762.25
2023-02-17T14:41:15.878Z,101758.69
2023-02-17T14:44:02.636Z,101756.38
2023-02-17T14:46:49.432Z,101764.13
2023-02-17T14:49:36.005Z,101765.34
2023-02-17T14:52:25.875Z,101768.22
2023-02-17T14:55:17.939Z,101779.22
2023-02-17T14:58:05.827Z,101783.44
2023-02-17T15:00:52.230Z,101790.44
2023-02-17T15:03:38.766Z,101797.41
2023-02-17T15:06:30.785Z,101805.00
2023-02-17T15:09:24.602Z,101799.78
2023-02-17T15:12:15.488Z,101796.38
2023-02-17T15:15:02.162Z,101797.19
2023-02-17T15:17:49.308Z,101806.06
2023-02-17T15:20:36.287Z,101787.72
2023-02-17T15:23:25.526Z,101805.66
2023-02-17T15:26:13.548Z,101802.94
2023-02-17T15:29:00.535Z,101815.53
2023-02-17T15:31:47.815Z,101822.63
2023-02-17T15:34:34.986Z,101819.78
2023-02-17T15:37:21.911Z,101819.63
2023-02-17T15:40:13.554Z,101827.81
2023-02-17T15:43:03.294Z,101843.38
2023-02-17T15:45:50.098Z,101856.78
2023-02-17T15:48:36.361Z,101866.97
2023-02-17T15:51:24.654Z,101859.47
2023-02-17T15:54:11.165Z,101853.91
2023-02-17T15:56:57.923Z,101856.25
2023-02-17T15:59:46.184Z,101864.06
2023-02-17T16:02:32.827Z,101876.44
2023-02-17T16:05:22.168Z,101866.44
2023-02-17T16:08:09.080Z,101872.72
2023-02-17T16:10:56.294Z,101874.41
2023-02-17T16:13:45.553Z,101867.81
2023-02-17T16:16:34.618Z,101874.41
2023-02-17T16:19:21.904Z,101881.53
2023-02-17T16:22:08.700Z,101888.00
2023-02-17T16:24:55.236Z,101894.09
2023-02-17T16:27:43.256Z,101888.16
2023-02-17T16:30:32.345Z,101898.66
2023-02-17T16:33:20.323Z,101902.25
2023-02-17T16:36:14.858Z,101916.28
2023-02-17T16:39:03.485Z,101924.44
2023-02-17T16:41:50.437Z,101929.88
2023-02-17T16:44:37.195Z,101930.88
2023-02-17T16:47:24.186Z,101921.72
2023-02-17T16:50:20.082Z,101940.50
2023-02-17T16:53:08.974Z,101939.81
2023-02-17T16:55:56.191Z,101959.81
2023-02-17T16:58:43.026Z,101956.28
2023-02-17T17:01:29.817Z,101962.38
2023-02-17T17:04:16.476Z,101959.50
2023-02-17T17:07:04.668Z,101970.38
2023-02-17T17:10:17.511Z,101971.66
2023-02-17T17:12:58.258Z,101993.84
2023-02-17T17:15:46.336Z,102003.50
2023-02-17T17:18:32.803Z,101993.84
2023-02-17T17:21:20.937Z,102002.50
2023-02-17T17:24:09.230Z,102002.78
2023-02-17T17:26:56.035Z,102017.06
2023-02-17T17:29:42.547Z,102013.09
2023-02-17T17:32:29.405Z,102035.53
2023-02-17T17:35:16.719Z,102047.63
2023-02-17T17:38:03.463Z,102050.53
2023-02-17T17:40:53.260Z,102044.75
2023-02-17T17:43:39.806Z,102066.75
2023-02-17T17:46:28.550Z,102069.56
2023-02-17T17:49:18.136Z,102074.16
2023-02-17T17:52:05.046Z,102093.91
2023-02-17T17:54:52.146Z,102093.47
2023-02-17T17:57:40.628Z,102082.06
2023-02-17T18:00:27.018Z,102085.09
2023-02-17T18:03:13.827Z,102089.69
2023-02-17T18:06:00.952Z,102094.59
2023-02-17T18:08:49.187Z,102097.53
2023-02-17T18:11:38.001Z,102102.28
2023-02-17T18:14:26.121Z,102103.75
2023-02-17T18:17:13.904Z,102095.25
2023-02-17T18:20:01.448Z,102106.19
2023-02-17T18:22:48.393Z,102125.59
2023-02-17T18:25:35.138Z,102149.88
2023-02-17T18:28:21.673Z,102140.44
2023-02-17T18:31:11.085Z,102120.50
2023-02-17T18:33:57.970Z,102107.84
2023-02-17T18:36:45.046Z,102088.22
2023-02-17T18:39:31.882Z,102073.91
2023-02-17T18:42:18.602Z,102076.13
2023-02-17T18:45:05.644Z,102060.84
2023-02-17T18:47:53.349Z,102059.69
2023-02-17T18:50:40.040Z,102075.91
2023-02-17T18:53:27.255Z,102094.25
2023-02-17T18:56:15.673Z,102106.75
2023-02-17T18:59:02.573Z,102105.69
2023-02-17T19:01:49.147Z,102116.13
2023-02-17T19:04:37.586Z,102122.66
2023-02-17T19:07:24.228Z,102128.16
2023-02-17T19:10:12.510Z,102139.03
2023-02-17T19:12:59.327Z,102139.09
2023-02-17T19:15:45.967Z,102159.88
2023-02-17T19:18:32.392Z,102167.94
2023-02-17T19:21:21.048Z,102169.91
2023-02-17T19:24:09.430Z,102179.84
2023-02-17T19:26:55.887Z,102163.06
2023-02-17T19:29:42.627Z,102179.09
2023-02-17T19:32:29.310Z,102178.88
2023-02-17T19:35:15.788Z,102181.34
2023-02-17T19:38:03.694Z,102195.59
2023-02-17T19:40:50.407Z,102191.31
2023-02-17T19:43:37.082Z,102198.00
2023-02-17T19:46:25.621Z,102203.63
2023-02-17T19:49:12.553Z,102211.13
2023-02-17T19:51:59.060Z,102210.97
2023-02-17T19:54:47.492Z,102192.59
2023-02-17T19:57:34.201Z,102187.53
2023-02-17T20:00:21.122Z,102195.66
2023-02-17T20:03:08.024Z,102195.03
2023-02-17T20:05:54.625Z,102187.75
2023-02-17T20:08:41.542Z,102186.53
2023-02-17T20:11:30.570Z,102183.91
2023-02-17T20:14:17.438Z,102191.47
2023-02-17T20:17:04.728Z,102191.41
2023-02-17T20:19:51.412Z,102192.41
2023-02-17T20:22:37.900Z,102193.63
2023-02-17T20:25:24.764Z,102197.47
2023-02-17T20:28:12.887Z,102197.22
2023-02-17T20:30:59.437Z,102210.88
2023-02-17T20:33:46.084Z,102206.94
2023-02-17T20:36:33.371Z,102194.28
2023-02-17T20:39:20.282Z,102199.31
2023-02-17T20:42:06.740Z,102201.78
2023-02-17T20:44:56.306Z,102196.94
2023-02-17T20:47:43.559Z,102194.59
2023-02-17T20:50:30.463Z,102196.94
2023-02-17T20:53:17.303Z,102206.34
2023-02-17T20:56:03.963Z,102209.38
2023-02-17T20:58:51.908Z,102197.47
2023-02-17T21:01:40.534Z,102208.06
2023-02-17T21:04:26.993Z,102205.84
2023-02-17T21:07:13.691Z,102208.41
2023-02-17T21:10:00.215Z,102211.47
2023-02-17T21:12:46.958Z,102217.25
2023-02-17T21:15:34.400Z,102217.97
2023-02-17T21:18:21.985Z,102220.44
2023-02-17T21:21:08.967Z,102234.88
2023-02-17T21:23:55.589Z,102234.91
2023-02-17T21:26:42.079Z,102231.94
2023-02-17T21:29:28.959Z,102228.44
2023-02-17T21:32:15.522Z,102221.31
2023-02-17T21:35:03.680Z,102216.53
2023-02-17T21:37:49.905Z,102222.94
2023-02-17T21:40:36.399Z,102224.41
2023-02-17T21:43:40.680Z,102219.91
2023-02-17T21:46:27.695Z,102221.25
2023-02-17T21:49:15.309Z,102225.88
2023-02-17T21:52:03.468Z,102230.84
2023-02-17T21:54:49.566Z,102232.00
2023-02-17T21:57:36.140Z,102234.47
2023-02-17T22:00:22.917Z,102222.81
2023-02-17T22:03:09.285Z,102225.41
2023-02-17T22:05:55.900Z,102220.69
2023-02-17T22:08:43.913Z,102219.44
2023-02-17T22:11:32.657Z,102223.97
2023-02-17T22:14:21.493Z,102219.59
2023-02-17T22:17:07.872Z,102212.53
2023-02-17T22:19:54.404Z,102216.53
2023-02-17T22:22:40.938Z,102205.66
2023-02-17T22:25:28.968Z,102200.13
2023-02-17T22:28:16.681Z,102198.66
2023-02-17T22:31:03.445Z,102190.56
2023-02-17T22:33:50.293Z,102183.44
2023-02-17T22:36:38.069Z,102174.28
2023-02-17T22:39:25.175Z,102180.81
2023-02-17T22:42:13.377Z,102164.19
2023-02-17T22:44:59.829Z,102152.50
2023-02-17T22:47:46.446Z,102156.56
2023-02-17T22:50:33.036Z,102159.44
2023-02-17T22:53:19.992Z,102148.03
2023-02-17T22:56:07.827Z,102156.03
2023-02-17T22:58:57.979Z,102145.25
2023-02-17T23:01:59.768Z,102142.50
2023-02-17T23:04:47.893Z,102147.59
2023-02-17T23:07:34.369Z,102152.22
2023-02-17T23:10:21.275Z,102150.78
2023-02-17T23:13:08.006Z,102153.25
2023-02-17T23:15:55.950Z,102163.03
2023-02-17T23:18:42.565Z,102176.25
2023-02-17T23:21:29.239Z,102185.63
2023-02-17T23:24:17.442Z,102194.06
2023-02-17T23:27:04.821Z,102189.09
2023-02-17T23:29:52.096Z,102194.22
2023-02-17T23:32:39.966Z,102183.31
2023-02-17T23:35:27.030Z,102190.81
2023-02-17T23:38:14.700Z,102194.47
2023-02-17T23:41:01.871Z,102200.47
2023-02-17T23:43:48.519Z,102192.53
2023-02-17T23:46:35.295Z,102199.53
2023-02-17T23:49:23.263Z,102200.31
2023-02-17T23:52:10.988Z,102212.78
2023-02-17T23:54:57.526Z,102206.63
2023-02-17T23:57:44.042Z,102217.19
